This is the latest recevied weather packets stored in our database for station/object N5AJY. If no packets are shown the sender has not sent any weather packets the latest 1 day(s).
| Time | Temp. | Humidity | Pressure | Rain* | Wind** | Luminosity | Snow |
|---|---|---|---|---|---|---|---|
| 1778096814 | 16.11° C | 56% | 1012.5 hPa | 0 mm | - | - | - |
| 1778096514 | 16.67° C | 54% | 1012.4 hPa | 0 mm | - | - | - |
| 1778095913 | 16.11° C | 56% | 1012.5 hPa | 0 mm | - | - | - |
| 1778095614 | 16.11° C | 55% | 1012.5 hPa | 0 mm | - | - | - |
| 1778095015 | 16.11° C | 56% | 1012.9 hPa | 0 mm | - | - | - |
| 1778093513 | 15.56° C | 56% | 1012.9 hPa | 0 mm | - | - | - |
| 1778092913 | 16.11° C | 56% | 1013.2 hPa | 0 mm | - | - | - |
| 1778092614 | 16.11° C | 53% | 1013.2 hPa | 0 mm | - | - | - |
| 1778092314 | 16.11° C | 54% | 1013.3 hPa | 0 mm | - | - | - |
| 1778089014 | 15.56° C | 56% | 1014.1 hPa | 0 mm | - | - | - |
| 1778088113 | 15.56° C | 58% | 1014.4 hPa | 0 mm | - | - | - |
| 1778086914 | 15° C | 58% | 1014.8 hPa | 0 mm | - | - | - |
| 1778085413 | 13.89° C | 61% | 1014.5 hPa | 0 mm | - | - | - |
| 1778085114 | 13.89° C | 61% | 1014.5 hPa | 0 mm | - | - | - |
| 1778082713 | 13.33° C | 61% | 1014 hPa | 0 mm | - | - | - |
| 1778082414 | 13.33° C | 62% | 1013.9 hPa | 0 mm | - | - | - |
| 1778079114 | 11.67° C | 68% | 1013.3 hPa | 0 mm | - | - | - |
| 1778077914 | 11.11° C | 69% | 1012.9 hPa | 0 mm | - | - | - |
| 1778077613 | 11.11° C | 71% | 1013.1 hPa | 0 mm | - | - | - |
| 1778076714 | 10.56° C | 72% | 1013 hPa | 0 mm | - | - | - |
| 1778076118 | 10.56° C | 74% | 1013 hPa | 0 mm | - | - | - |
| 1778074014 | 9.44° C | 79% | 1013.2 hPa | 0 mm | - | - | - |
| 1778071613 | 9.44° C | 80% | 1013.1 hPa | 0 mm | - | - | - |
| 1778071013 | 8.89° C | 81% | 1012.8 hPa | 0 mm | - | - | - |
| 1778068314 | 8.89° C | 78% | 1012.5 hPa | 0 mm | - | - | - |
* Rain latest hour (hover to see other rain measurements)
** Current wind speed in m/s (hover to see current wind gust speed)